createdAt,value
2019-03-10T00:01:48.682Z,8.30
2019-03-10T00:04:16.912Z,8.30
2019-03-10T00:06:45.152Z,8.30
2019-03-10T00:09:13.410Z,8.40
2019-03-10T00:11:41.636Z,8.30
2019-03-10T00:14:09.913Z,8.30
2019-03-10T00:16:38.164Z,8.30
2019-03-10T00:19:06.398Z,8.30
2019-03-10T00:21:34.639Z,8.30
2019-03-10T00:24:02.909Z,8.30
2019-03-10T00:26:31.136Z,8.30
2019-03-10T00:28:59.678Z,8.30
2019-03-10T00:31:27.962Z,8.30
2019-03-10T00:33:56.228Z,8.20
2019-03-10T00:36:24.497Z,8.30
2019-03-10T00:38:58.844Z,8.20
2019-03-10T00:41:36.290Z,8.20
2019-03-10T00:44:42.776Z,8.20
2019-03-10T00:47:47.717Z,8.20
2019-03-10T00:50:31.236Z,8.20
2019-03-10T00:52:59.673Z,8.20
2019-03-10T00:55:27.939Z,8.20
2019-03-10T00:57:56.167Z,8.20
2019-03-10T01:00:24.409Z,8.20
2019-03-10T01:02:52.626Z,8.20
2019-03-10T01:05:20.910Z,8.30
2019-03-10T01:07:49.149Z,8.30
2019-03-10T01:10:17.396Z,8.40
2019-03-10T01:12:45.633Z,8.40
2019-03-10T01:15:14.436Z,8.40
2019-03-10T01:17:42.646Z,8.30
2019-03-10T01:20:11.929Z,8.30
2019-03-10T01:22:40.256Z,8.40
2019-03-10T01:25:10.702Z,8.40
2019-03-10T01:27:39.290Z,8.40
2019-03-10T01:30:19.031Z,8.40
2019-03-10T01:32:50.522Z,8.40
2019-03-10T01:35:21.715Z,8.40
2019-03-10T01:37:49.976Z,8.40
2019-03-10T01:40:18.300Z,8.40
2019-03-10T01:42:46.548Z,8.40
2019-03-10T01:45:14.798Z,8.40
2019-03-10T01:47:43.023Z,8.30
2019-03-10T01:50:13.118Z,8.30
2019-03-10T01:52:41.393Z,8.30
2019-03-10T01:55:11.174Z,8.40
2019-03-10T01:57:39.404Z,8.30
2019-03-10T02:00:11.206Z,8.30
2019-03-10T02:02:39.450Z,8.30
2019-03-10T02:05:07.766Z,8.30
2019-03-10T02:07:35.986Z,8.30
2019-03-10T02:10:07.046Z,8.30
2019-03-10T02:12:36.050Z,8.20
2019-03-10T02:15:07.054Z,8.30
2019-03-10T02:17:35.262Z,8.30
2019-03-10T02:20:05.650Z,8.20
2019-03-10T02:22:33.870Z,8.20
2019-03-10T02:25:02.265Z,8.20
2019-03-10T02:27:30.508Z,8.10
2019-03-10T02:29:58.744Z,8.00
2019-03-10T02:32:26.970Z,8.00
2019-03-10T02:34:55.204Z,8.00
2019-03-10T02:37:23.430Z,8.00
2019-03-10T02:39:51.692Z,7.90
2019-03-10T02:42:19.910Z,7.80
2019-03-10T02:44:48.163Z,7.80
2019-03-10T02:47:16.398Z,7.80
2019-03-10T02:49:44.626Z,7.80
2019-03-10T02:52:12.851Z,7.70
2019-03-10T02:54:41.083Z,7.70
2019-03-10T02:57:09.324Z,7.70
2019-03-10T02:59:37.580Z,7.70
2019-03-10T03:02:05.778Z,7.60
2019-03-10T03:04:34.044Z,7.60
2019-03-10T03:07:02.262Z,7.50
2019-03-10T03:09:30.527Z,7.50
2019-03-10T03:11:58.762Z,7.50
2019-03-10T03:14:27.003Z,7.50
2019-03-10T03:16:55.246Z,7.50
2019-03-10T03:19:23.511Z,7.40
2019-03-10T03:21:51.850Z,7.40
2019-03-10T03:24:20.110Z,7.40
2019-03-10T03:26:48.341Z,7.40
2019-03-10T03:29:16.596Z,7.40
2019-03-10T03:31:44.876Z,7.30
2019-03-10T03:34:13.106Z,7.30
2019-03-10T03:36:41.322Z,7.30
2019-03-10T03:39:18.291Z,7.30
2019-03-10T03:41:46.573Z,7.20
2019-03-10T03:44:14.834Z,7.10
2019-03-10T03:46:43.070Z,7.10
2019-03-10T03:49:12.004Z,7.00
2019-03-10T03:51:40.268Z,7.00
2019-03-10T03:54:08.547Z,7.00
2019-03-10T03:56:36.817Z,7.00
2019-03-10T03:59:05.075Z,7.00
2019-03-10T04:01:35.023Z,7.00
2019-03-10T04:04:03.244Z,7.00
2019-03-10T04:06:31.547Z,7.00
2019-03-10T04:08:59.800Z,7.00
2019-03-10T04:11:28.033Z,6.90
2019-03-10T04:13:56.264Z,6.90
2019-03-10T04:16:24.510Z,6.90
2019-03-10T04:18:52.718Z,6.90
2019-03-10T04:21:20.947Z,6.90
2019-03-10T04:23:49.177Z,6.80
2019-03-10T04:26:17.405Z,6.80
2019-03-10T04:28:45.681Z,6.80
2019-03-10T04:31:14.540Z,6.80
2019-03-10T04:33:42.753Z,6.70
2019-03-10T04:36:10.962Z,6.70
2019-03-10T04:38:39.212Z,6.70
2019-03-10T04:41:07.455Z,6.70
2019-03-10T04:43:35.682Z,6.70
2019-03-10T04:46:03.918Z,6.70
2019-03-10T04:48:32.152Z,6.70
2019-03-10T04:51:00.425Z,6.70
2019-03-10T04:53:28.632Z,6.70
2019-03-10T04:55:58.502Z,6.70
2019-03-10T04:58:26.712Z,6.70
2019-03-10T05:00:56.628Z,6.60
2019-03-10T05:03:24.838Z,6.60
2019-03-10T05:05:53.088Z,6.60
2019-03-10T05:08:21.343Z,6.60
2019-03-10T05:10:49.554Z,6.60
2019-03-10T05:13:17.799Z,6.60
2019-03-10T05:15:46.959Z,6.50
2019-03-10T05:18:15.200Z,6.50
2019-03-10T05:20:43.473Z,6.50
2019-03-10T05:23:29.875Z,6.50
2019-03-10T05:25:58.254Z,6.50
2019-03-10T05:28:26.954Z,6.40
2019-03-10T05:30:55.180Z,6.40
2019-03-10T05:33:23.405Z,6.40
2019-03-10T05:35:51.630Z,6.30
2019-03-10T05:38:19.855Z,6.20
2019-03-10T05:40:48.691Z,6.20
2019-03-10T05:43:16.940Z,6.20
2019-03-10T05:45:45.145Z,6.20
2019-03-10T05:48:13.383Z,6.20
2019-03-10T05:50:41.629Z,6.20
2019-03-10T05:53:09.866Z,6.20
2019-03-10T05:55:38.092Z,6.20
2019-03-10T05:58:06.327Z,6.20
2019-03-10T06:00:42.115Z,6.20
2019-03-10T06:03:04.516Z,6.20
2019-03-10T06:05:32.763Z,6.30
2019-03-10T06:08:00.997Z,6.20
2019-03-10T06:10:29.238Z,6.20
2019-03-10T06:12:57.479Z,6.20
2019-03-10T06:15:25.721Z,6.20
2019-03-10T06:17:54.003Z,6.20
2019-03-10T06:20:22.247Z,6.20
2019-03-10T06:22:51.215Z,6.20
2019-03-10T06:25:19.450Z,6.20
2019-03-10T06:27:47.666Z,6.10
2019-03-10T06:30:15.903Z,6.10
2019-03-10T06:32:44.138Z,6.10
2019-03-10T06:35:12.363Z,6.10
2019-03-10T06:37:40.623Z,6.10
2019-03-10T06:40:08.850Z,6.10
2019-03-10T06:42:37.090Z,6.00
2019-03-10T06:45:06.613Z,6.00
2019-03-10T06:47:34.847Z,6.00
2019-03-10T06:50:03.906Z,6.00
2019-03-10T06:52:32.135Z,5.90
2019-03-10T06:55:00.449Z,6.00
2019-03-10T06:57:28.675Z,6.00
2019-03-10T06:59:56.920Z,6.00
2019-03-10T07:02:25.210Z,6.00
2019-03-10T07:04:53.779Z,6.00
2019-03-10T07:07:22.057Z,6.00
2019-03-10T07:09:50.286Z,6.00
2019-03-10T07:12:18.544Z,6.00
2019-03-10T07:14:46.843Z,6.00
2019-03-10T07:17:15.103Z,6.00
2019-03-10T07:19:43.353Z,6.10
2019-03-10T07:22:11.598Z,6.10
2019-03-10T07:24:39.838Z,6.10
2019-03-10T07:27:08.096Z,6.00
2019-03-10T07:29:40.977Z,6.10
2019-03-10T07:32:10.902Z,6.10
2019-03-10T07:34:57.329Z,6.10
2019-03-10T07:37:39.679Z,6.10
2019-03-10T07:40:15.252Z,6.10
2019-03-10T07:42:53.933Z,6.10
2019-03-10T07:45:26.719Z,6.10
2019-03-10T07:47:59.574Z,6.10
2019-03-10T07:50:38.692Z,6.10
2019-03-10T07:53:17.283Z,6.10
2019-03-10T07:55:53.154Z,6.20
2019-03-10T07:58:23.014Z,6.20
2019-03-10T08:00:52.898Z,6.20
2019-03-10T08:03:26.911Z,6.30
2019-03-10T08:06:15.310Z,6.30
2019-03-10T08:08:45.186Z,6.30
2019-03-10T08:11:20.711Z,6.40
2019-03-10T08:14:06.673Z,6.40
2019-03-10T08:16:36.567Z,6.40
2019-03-10T08:19:22.448Z,6.50
2019-03-10T08:21:55.103Z,6.50
2019-03-10T08:24:33.475Z,6.60
2019-03-10T08:27:03.370Z,6.60
2019-03-10T08:29:44.791Z,6.70
2019-03-10T08:32:14.690Z,6.70
2019-03-10T08:34:44.550Z,6.80
2019-03-10T08:37:17.343Z,6.80
2019-03-10T08:39:56.252Z,6.80
2019-03-10T08:42:26.131Z,6.80
2019-03-10T08:44:59.568Z,6.90
2019-03-10T08:47:31.892Z,6.90
2019-03-10T08:50:02.342Z,7.10
2019-03-10T08:52:32.367Z,7.20
2019-03-10T08:55:05.383Z,7.30
2019-03-10T08:57:35.239Z,7.40
2019-03-10T09:00:23.321Z,7.60
2019-03-10T09:02:56.074Z,7.70
2019-03-10T09:05:41.252Z,7.80
2019-03-10T09:08:16.854Z,7.90
2019-03-10T09:10:49.385Z,8.10
2019-03-10T09:13:19.271Z,8.20
2019-03-10T09:15:55.125Z,8.40
2019-03-10T09:18:34.126Z,8.60
2019-03-10T09:21:04.113Z,8.60
2019-03-10T09:23:34.336Z,8.60
2019-03-10T09:26:07.395Z,8.80
2019-03-10T09:28:55.114Z,9.00
2019-03-10T09:31:27.498Z,9.20
2019-03-10T09:34:00.082Z,9.40
2019-03-10T09:36:29.953Z,9.60
2019-03-10T09:39:15.729Z,9.80
2019-03-10T09:41:51.260Z,9.90
2019-03-10T09:44:37.341Z,10.10
2019-03-10T09:47:09.785Z,10.10
2019-03-10T09:49:48.445Z,10.20
2019-03-10T09:52:33.363Z,10.30
2019-03-10T09:55:12.256Z,10.50
2019-03-10T09:57:58.370Z,10.60
2019-03-10T10:00:36.997Z,10.80
2019-03-10T10:03:09.665Z,10.70
2019-03-10T10:05:42.430Z,10.60
2019-03-10T10:08:14.845Z,10.60
2019-03-10T10:10:50.579Z,10.70
2019-03-10T10:13:29.287Z,10.70
2019-03-10T10:16:04.636Z,10.70
2019-03-10T10:18:34.505Z,10.70
2019-03-10T10:21:20.759Z,10.90
2019-03-10T10:23:53.187Z,11.50
2019-03-10T10:26:41.124Z,12.10
2019-03-10T10:29:27.142Z,12.40
2019-03-10T10:31:57.034Z,12.80
2019-03-10T10:34:26.926Z,13.20
2019-03-10T10:36:56.794Z,13.40
2019-03-10T10:39:43.143Z,13.40
2019-03-10T10:42:29.384Z,13.40
2019-03-10T10:45:02.364Z,13.50
2019-03-10T10:47:32.245Z,13.50
2019-03-10T10:50:02.190Z,13.70
2019-03-10T10:52:41.434Z,13.80
2019-03-10T10:55:23.178Z,14.00
2019-03-10T10:57:58.848Z,13.60
2019-03-10T11:00:28.748Z,13.60
2019-03-10T11:03:04.452Z,13.40
2019-03-10T11:05:39.917Z,13.00
2019-03-10T11:08:13.281Z,12.60
2019-03-10T11:10:43.151Z,12.20
2019-03-10T11:13:18.814Z,12.20
2019-03-10T11:16:00.941Z,12.20
2019-03-10T11:18:40.036Z,12.00
2019-03-10T11:21:28.116Z,11.70
2019-03-10T11:23:58.024Z,11.60
2019-03-10T11:26:28.205Z,11.70
2019-03-10T11:29:07.502Z,11.80
2019-03-10T11:31:37.390Z,12.20
2019-03-10T11:34:09.704Z,12.30
2019-03-10T11:36:54.900Z,12.40
2019-03-10T11:39:30.864Z,12.80
2019-03-10T11:42:03.682Z,13.50
2019-03-10T11:44:45.779Z,13.80
2019-03-10T11:47:15.680Z,14.00
2019-03-10T11:49:51.681Z,14.30
2019-03-10T11:52:30.730Z,14.10
2019-03-10T11:55:00.646Z,14.10
2019-03-10T11:57:39.614Z,14.30
2019-03-10T12:00:21.288Z,14.50
2019-03-10T12:03:09.573Z,14.90
2019-03-10T12:05:57.380Z,15.20
2019-03-10T12:08:44.992Z,14.70
2019-03-10T12:11:13.227Z,14.50
2019-03-10T12:13:41.482Z,14.20
2019-03-10T12:16:09.926Z,14.30
2019-03-10T12:18:38.267Z,14.40
2019-03-10T12:21:06.520Z,14.30
2019-03-10T12:23:35.140Z,14.10
2019-03-10T12:26:03.494Z,13.80
2019-03-10T12:28:32.147Z,14.10
2019-03-10T12:31:00.394Z,14.40
2019-03-10T12:33:28.663Z,14.00
2019-03-10T12:35:56.908Z,13.20
2019-03-10T12:38:25.163Z,12.40
2019-03-10T12:40:53.424Z,11.90
2019-03-10T12:43:21.692Z,11.50
2019-03-10T12:45:49.965Z,11.20
2019-03-10T12:48:18.291Z,10.90
2019-03-10T12:50:46.583Z,10.70
2019-03-10T12:53:15.080Z,10.60
2019-03-10T12:55:43.331Z,10.40
2019-03-10T12:58:11.554Z,10.20
2019-03-10T13:00:39.828Z,10.20
2019-03-10T13:03:08.076Z,10.20
2019-03-10T13:05:36.306Z,10.30
2019-03-10T13:08:04.567Z,10.60
2019-03-10T13:10:32.825Z,11.00
2019-03-10T13:13:01.066Z,11.30
2019-03-10T13:15:29.326Z,11.50
2019-03-10T13:17:57.564Z,11.70
2019-03-10T13:20:28.670Z,11.70
2019-03-10T13:22:55.778Z,11.80
2019-03-10T13:25:24.016Z,11.60
2019-03-10T13:27:52.268Z,11.60
2019-03-10T13:30:20.569Z,11.90
2019-03-10T13:32:48.830Z,12.10
2019-03-10T13:35:17.911Z,12.20
2019-03-10T13:37:46.178Z,11.90
2019-03-10T13:40:14.943Z,11.80
2019-03-10T13:42:43.175Z,11.50
2019-03-10T13:45:13.090Z,11.40
2019-03-10T13:47:41.338Z,11.30
2019-03-10T13:50:12.808Z,11.30
2019-03-10T13:52:41.089Z,11.30
2019-03-10T13:55:09.774Z,11.40
2019-03-10T13:57:38.000Z,11.30
2019-03-10T14:00:25.627Z,11.20
2019-03-10T14:02:53.931Z,11.10
2019-03-10T14:05:22.300Z,11.00
2019-03-10T14:07:50.553Z,10.90
2019-03-10T14:10:18.779Z,10.90
2019-03-10T14:12:47.000Z,11.00
2019-03-10T14:15:16.966Z,11.00
2019-03-10T14:17:45.224Z,10.80
2019-03-10T14:20:14.655Z,10.70
2019-03-10T14:22:43.177Z,10.50
2019-03-10T14:25:13.538Z,10.40
2019-03-10T14:27:41.772Z,10.30
2019-03-10T14:30:12.473Z,10.10
2019-03-10T14:32:40.709Z,10.10
2019-03-10T14:37:32.021Z,9.90
2019-03-10T14:40:00.358Z,9.80
2019-03-10T14:42:28.636Z,9.80
2019-03-10T14:44:56.860Z,9.80
2019-03-10T14:47:25.082Z,9.80
2019-03-10T14:49:53.309Z,9.80
2019-03-10T14:52:27.547Z,9.70
2019-03-10T14:54:55.772Z,9.70
2019-03-10T14:57:24.017Z,9.70
2019-03-10T14:59:53.221Z,9.70
2019-03-10T15:02:21.494Z,9.70
2019-03-10T15:04:49.739Z,9.60
2019-03-10T15:07:17.960Z,9.50
2019-03-10T15:09:46.212Z,9.50
2019-03-10T15:12:14.419Z,9.50
2019-03-10T15:14:42.660Z,9.50
2019-03-10T15:17:10.912Z,9.50
2019-03-10T15:19:39.141Z,9.40
2019-03-10T15:22:07.404Z,9.40
2019-03-10T15:24:35.624Z,9.60
2019-03-10T15:27:04.085Z,9.60
2019-03-10T15:29:32.879Z,9.80
2019-03-10T15:32:01.149Z,9.80
2019-03-10T15:34:29.395Z,9.70
2019-03-10T15:36:57.630Z,9.60
2019-03-10T15:39:27.291Z,9.40
2019-03-10T15:41:55.841Z,9.30
2019-03-10T15:44:24.110Z,9.20
2019-03-10T15:46:52.377Z,9.10
2019-03-10T15:49:20.610Z,9.00
2019-03-10T15:51:48.878Z,8.80
2019-03-10T15:54:17.098Z,8.70
2019-03-10T15:56:45.341Z,8.60
2019-03-10T15:59:13.568Z,8.60
2019-03-10T16:01:41.798Z,8.40
2019-03-10T16:04:15.248Z,8.30
2019-03-10T16:06:43.477Z,8.20
2019-03-10T16:09:11.715Z,8.10
2019-03-10T16:11:39.973Z,8.10
2019-03-10T16:14:08.175Z,8.00
2019-03-10T16:16:36.419Z,7.90
2019-03-10T16:19:04.645Z,7.70
2019-03-10T16:21:32.885Z,7.60
2019-03-10T16:24:01.104Z,7.50
2019-03-10T16:26:29.353Z,7.40
2019-03-10T16:28:57.588Z,7.40
2019-03-10T16:31:25.834Z,7.30
2019-03-10T16:33:54.060Z,7.30
2019-03-10T16:36:22.311Z,7.30
2019-03-10T16:39:50.954Z,7.30
2019-03-10T16:42:19.176Z,7.20
2019-03-10T16:44:47.416Z,7.10
2019-03-10T16:47:15.664Z,7.00
2019-03-10T16:49:43.900Z,6.80
2019-03-10T16:52:12.265Z,6.80
2019-03-10T16:54:40.549Z,6.70
2019-03-10T16:57:08.795Z,6.60
2019-03-10T16:59:37.021Z,6.60
2019-03-10T17:02:05.271Z,6.60
2019-03-10T17:04:33.546Z,6.60
2019-03-10T17:07:01.803Z,6.60
2019-03-10T17:09:30.021Z,6.50
2019-03-10T17:11:58.273Z,6.50
2019-03-10T17:14:26.504Z,6.40
2019-03-10T17:16:54.747Z,6.40
2019-03-10T17:19:22.977Z,6.30
2019-03-10T17:21:51.237Z,6.30
2019-03-10T17:24:19.482Z,6.30
2019-03-10T17:26:47.756Z,6.20
2019-03-10T17:29:15.975Z,6.20
2019-03-10T17:31:44.212Z,6.20
2019-03-10T17:34:12.628Z,6.10
2019-03-10T17:36:40.867Z,6.10
2019-03-10T17:39:09.085Z,6.10
2019-03-10T17:41:37.355Z,6.00
2019-03-10T17:44:05.609Z,6.00
2019-03-10T17:46:33.851Z,5.90
2019-03-10T17:49:02.276Z,5.90
2019-03-10T17:51:30.507Z,5.90
2019-03-10T17:53:58.754Z,5.90
2019-03-10T17:56:26.961Z,5.90
2019-03-10T17:58:55.330Z,5.90
2019-03-10T18:01:23.590Z,5.90
2019-03-10T18:03:52.849Z,6.00
2019-03-10T18:06:21.074Z,6.00
2019-03-10T18:08:49.326Z,6.10
2019-03-10T18:11:17.631Z,6.10
2019-03-10T18:13:45.851Z,6.00
2019-03-10T18:16:14.078Z,6.10
2019-03-10T18:18:42.320Z,6.10
2019-03-10T18:21:10.549Z,6.20
2019-03-10T18:23:38.757Z,6.30
2019-03-10T18:26:06.970Z,6.30
2019-03-10T18:28:35.207Z,6.40
2019-03-10T18:31:03.432Z,6.40
2019-03-10T18:33:31.667Z,6.40
2019-03-10T18:35:59.891Z,6.40
2019-03-10T18:38:28.142Z,6.30
2019-03-10T18:40:56.416Z,6.20
2019-03-10T18:43:25.234Z,6.20
2019-03-10T18:45:53.582Z,6.10
2019-03-10T18:48:21.805Z,6.00
2019-03-10T18:50:50.082Z,6.00
2019-03-10T18:53:18.379Z,6.00
2019-03-10T18:55:46.619Z,5.90
2019-03-10T18:58:15.096Z,5.80
2019-03-10T19:00:43.325Z,5.80
2019-03-10T19:03:11.558Z,5.70
2019-03-10T19:05:39.820Z,5.70
2019-03-10T19:08:08.079Z,5.60
2019-03-10T19:10:36.384Z,5.60
2019-03-10T19:13:04.639Z,5.50
2019-03-10T19:15:32.851Z,5.60
2019-03-10T19:18:01.119Z,5.50
2019-03-10T19:20:29.345Z,5.60
2019-03-10T19:22:57.596Z,5.50
2019-03-10T19:25:25.815Z,5.60
2019-03-10T19:27:54.052Z,5.60
2019-03-10T19:30:22.829Z,5.60
2019-03-10T19:32:51.072Z,5.60
2019-03-10T19:35:19.317Z,5.60
2019-03-10T19:37:47.557Z,5.70
2019-03-10T19:40:20.837Z,5.80
2019-03-10T19:42:49.073Z,5.80
2019-03-10T19:45:21.283Z,5.80
2019-03-10T19:47:49.512Z,5.40
2019-03-10T19:50:27.025Z,5.00
2019-03-10T19:52:54.914Z,4.70
2019-03-10T19:55:23.139Z,4.50
2019-03-10T19:57:51.376Z,4.30
2019-03-10T20:00:20.418Z,4.10
2019-03-10T20:02:48.697Z,3.90
2019-03-10T20:05:16.978Z,3.60
2019-03-10T20:07:45.376Z,3.40
2019-03-10T20:10:15.164Z,3.40
2019-03-10T20:12:43.403Z,3.30
2019-03-10T20:15:14.369Z,3.40
2019-03-10T20:17:42.649Z,3.30
2019-03-10T20:20:13.319Z,3.30
2019-03-10T20:22:41.725Z,3.30
2019-03-10T20:25:11.804Z,3.20
2019-03-10T20:27:40.034Z,3.40
2019-03-10T20:30:16.195Z,3.40
2019-03-10T20:32:44.467Z,3.30
2019-03-10T20:35:12.720Z,3.30
2019-03-10T20:37:40.922Z,3.20
2019-03-10T20:40:12.411Z,3.20
2019-03-10T20:42:40.633Z,3.10
2019-03-10T20:45:10.016Z,3.00
2019-03-10T20:47:38.232Z,3.00
2019-03-10T20:50:16.714Z,2.80
2019-03-10T20:52:44.926Z,2.80
2019-03-10T20:55:14.125Z,2.80
2019-03-10T20:57:42.340Z,2.80
2019-03-10T21:00:16.442Z,2.70
2019-03-10T21:02:44.724Z,2.70
2019-03-10T21:05:12.969Z,2.70
2019-03-10T21:07:41.221Z,2.70
2019-03-10T21:10:17.945Z,2.70
2019-03-10T21:12:46.279Z,2.80
2019-03-10T21:15:21.769Z,2.80
2019-03-10T21:17:49.984Z,2.80
2019-03-10T21:20:23.342Z,2.80
2019-03-10T21:22:51.591Z,2.70
2019-03-10T21:25:30.657Z,2.70
2019-03-10T21:27:58.878Z,2.70
2019-03-10T21:30:32.031Z,2.80
2019-03-10T21:33:00.243Z,2.80
2019-03-10T21:35:28.488Z,2.70
2019-03-10T21:37:56.742Z,2.70
2019-03-10T21:40:33.286Z,2.70
2019-03-10T21:43:01.499Z,2.70
2019-03-10T21:45:29.775Z,2.70
2019-03-10T21:47:58.055Z,2.70
2019-03-10T21:53:57.211Z,2.60
2019-03-10T21:56:25.447Z,2.60
2019-03-10T21:58:53.707Z,2.60
2019-03-10T22:01:21.951Z,2.60
2019-03-10T22:03:50.162Z,2.60
2019-03-10T22:06:18.410Z,2.70
2019-03-10T22:08:46.650Z,2.60
2019-03-10T22:11:14.897Z,2.60
2019-03-10T22:13:46.876Z,2.60
2019-03-10T22:16:13.083Z,2.60
2019-03-10T22:18:41.322Z,2.70
2019-03-10T22:21:09.569Z,2.70
2019-03-10T22:23:37.786Z,2.80
2019-03-10T22:26:06.038Z,2.80
2019-03-10T22:28:34.313Z,2.90
2019-03-10T22:31:02.578Z,2.90
2019-03-10T22:33:30.824Z,2.90
2019-03-10T22:35:59.058Z,3.00
2019-03-10T22:38:27.297Z,3.10
2019-03-10T22:40:55.615Z,3.10
2019-03-10T22:43:23.869Z,3.20
2019-03-10T22:45:52.128Z,3.30
2019-03-10T22:48:20.999Z,3.30
2019-03-10T22:50:49.239Z,3.40
2019-03-10T22:53:17.478Z,3.60
2019-03-10T22:55:45.724Z,3.70
2019-03-10T22:58:13.966Z,3.90
2019-03-10T23:00:46.442Z,4.00
2019-03-10T23:03:14.690Z,4.10
2019-03-10T23:05:42.947Z,4.00
2019-03-10T23:08:11.315Z,4.00
2019-03-10T23:10:39.561Z,4.00
2019-03-10T23:13:07.842Z,4.10
2019-03-10T23:15:36.062Z,4.10
2019-03-10T23:18:04.319Z,4.00
2019-03-10T23:20:32.549Z,4.00
2019-03-10T23:23:00.815Z,4.00
2019-03-10T23:25:29.029Z,3.90
2019-03-10T23:27:57.278Z,3.90
2019-03-10T23:30:25.527Z,3.90
2019-03-10T23:32:53.767Z,3.90
2019-03-10T23:35:21.995Z,3.90
2019-03-10T23:37:50.245Z,3.90
2019-03-10T23:40:19.259Z,3.90
2019-03-10T23:42:47.537Z,3.90
2019-03-10T23:45:19.022Z,3.90
2019-03-10T23:47:47.388Z,4.00
2019-03-10T23:50:16.614Z,4.00
2019-03-10T23:52:44.846Z,4.00
2019-03-10T23:55:13.735Z,4.00
2019-03-10T23:57:41.938Z,4.00
